sensor_id;sensor_type;location;lat;lon;timestamp;P1;durP1;ratioP1;P2;durP2;ratioP2
9904;SDS011;4991;43.566;27.820;2023-03-03T00:01:15;18.77;;;12.47;;
9904;SDS011;4991;43.566;27.820;2023-03-03T00:03:41;21.43;;;12.93;;
9904;SDS011;4991;43.566;27.820;2023-03-03T00:06:08;18.80;;;13.33;;
9904;SDS011;4991;43.566;27.820;2023-03-03T00:08:36;15.90;;;11.37;;
9904;SDS011;4991;43.566;27.820;2023-03-03T00:11:02;15.27;;;12.20;;
9904;SDS011;4991;43.566;27.820;2023-03-03T00:13:30;16.97;;;11.17;;
9904;SDS011;4991;43.566;27.820;2023-03-03T00:16:16;18.10;;;11.77;;
9904;SDS011;4991;43.566;27.820;2023-03-03T00:18:52;16.70;;;11.17;;
9904;SDS011;4991;43.566;27.820;2023-03-03T00:23:47;18.87;;;12.30;;
9904;SDS011;4991;43.566;27.820;2023-03-03T00:26:33;18.00;;;12.10;;
9904;SDS011;4991;43.566;27.820;2023-03-03T00:29:02;17.80;;;12.20;;
9904;SDS011;4991;43.566;27.820;2023-03-03T00:31:55;14.13;;;10.33;;
9904;SDS011;4991;43.566;27.820;2023-03-03T00:34:36;18.33;;;11.70;;
9904;SDS011;4991;43.566;27.820;2023-03-03T00:37:02;19.50;;;11.83;;
9904;SDS011;4991;43.566;27.820;2023-03-03T00:39:29;16.73;;;11.27;;
9904;SDS011;4991;43.566;27.820;2023-03-03T00:42:23;16.07;;;11.33;;
9904;SDS011;4991;43.566;27.820;2023-03-03T00:44:58;21.27;;;12.00;;
9904;SDS011;4991;43.566;27.820;2023-03-03T00:47:34;16.73;;;11.67;;
9904;SDS011;4991;43.566;27.820;2023-03-03T00:52:34;18.80;;;11.37;;
9904;SDS011;4991;43.566;27.820;2023-03-03T00:55:04;17.13;;;10.53;;
9904;SDS011;4991;43.566;27.820;2023-03-03T00:57:31;16.00;;;10.93;;
9904;SDS011;4991;43.566;27.820;2023-03-03T00:59:56;18.13;;;11.40;;
9904;SDS011;4991;43.566;27.820;2023-03-03T01:02:22;15.43;;;10.97;;
9904;SDS011;4991;43.566;27.820;2023-03-03T01:04:49;15.53;;;11.57;;
9904;SDS011;4991;43.566;27.820;2023-03-03T01:07:17;17.63;;;11.53;;
9904;SDS011;4991;43.566;27.820;2023-03-03T01:09:43;14.83;;;10.73;;
9904;SDS011;4991;43.566;27.820;2023-03-03T01:12:09;14.50;;;10.10;;
9904;SDS011;4991;43.566;27.820;2023-03-03T01:14:36;16.47;;;10.50;;
9904;SDS011;4991;43.566;27.820;2023-03-03T01:17:02;14.40;;;10.70;;
9904;SDS011;4991;43.566;27.820;2023-03-03T01:19:28;13.40;;;10.00;;
9904;SDS011;4991;43.566;27.820;2023-03-03T01:21:54;13.27;;;10.20;;
9904;SDS011;4991;43.566;27.820;2023-03-03T01:24:20;17.93;;;11.23;;
9904;SDS011;4991;43.566;27.820;2023-03-03T01:26:45;14.17;;;10.47;;
9904;SDS011;4991;43.566;27.820;2023-03-03T01:29:11;15.47;;;10.60;;
9904;SDS011;4991;43.566;27.820;2023-03-03T01:31:37;16.27;;;10.43;;
9904;SDS011;4991;43.566;27.820;2023-03-03T01:34:02;14.53;;;10.60;;
9904;SDS011;4991;43.566;27.820;2023-03-03T01:36:28;16.03;;;11.03;;
9904;SDS011;4991;43.566;27.820;2023-03-03T01:38:54;20.10;;;11.33;;
9904;SDS011;4991;43.566;27.820;2023-03-03T01:41:20;14.77;;;11.20;;
9904;SDS011;4991;43.566;27.820;2023-03-03T01:43:47;16.77;;;11.40;;
9904;SDS011;4991;43.566;27.820;2023-03-03T01:48:50;13.77;;;10.40;;
9904;SDS011;4991;43.566;27.820;2023-03-03T01:51:22;19.70;;;11.17;;
9904;SDS011;4991;43.566;27.820;2023-03-03T01:53:52;17.57;;;10.97;;
9904;SDS011;4991;43.566;27.820;2023-03-03T01:56:21;14.27;;;11.00;;
9904;SDS011;4991;43.566;27.820;2023-03-03T01:58:51;14.93;;;10.67;;
9904;SDS011;4991;43.566;27.820;2023-03-03T02:01:23;16.77;;;11.93;;
9904;SDS011;4991;43.566;27.820;2023-03-03T02:03:50;20.70;;;12.13;;
9904;SDS011;4991;43.566;27.820;2023-03-03T02:06:18;19.87;;;13.27;;
9904;SDS011;4991;43.566;27.820;2023-03-03T02:11:22;14.57;;;10.37;;
9904;SDS011;4991;43.566;27.820;2023-03-03T02:13:48;14.57;;;10.70;;
9904;SDS011;4991;43.566;27.820;2023-03-03T02:16:14;15.80;;;10.63;;
9904;SDS011;4991;43.566;27.820;2023-03-03T02:18:39;16.20;;;11.50;;
9904;SDS011;4991;43.566;27.820;2023-03-03T02:26:29;14.83;;;11.33;;
9904;SDS011;4991;43.566;27.820;2023-03-03T02:28:57;18.70;;;11.70;;
9904;SDS011;4991;43.566;27.820;2023-03-03T02:31:23;18.77;;;12.07;;
9904;SDS011;4991;43.566;27.820;2023-03-03T02:33:52;16.53;;;11.47;;
9904;SDS011;4991;43.566;27.820;2023-03-03T02:36:19;17.67;;;12.17;;
9904;SDS011;4991;43.566;27.820;2023-03-03T02:38:51;18.57;;;12.17;;
9904;SDS011;4991;43.566;27.820;2023-03-03T02:41:29;15.97;;;11.60;;
9904;SDS011;4991;43.566;27.820;2023-03-03T02:43:59;22.13;;;11.53;;
9904;SDS011;4991;43.566;27.820;2023-03-03T02:46:38;16.43;;;11.63;;
9904;SDS011;4991;43.566;27.820;2023-03-03T02:49:05;16.50;;;11.50;;
9904;SDS011;4991;43.566;27.820;2023-03-03T02:51:32;25.63;;;12.33;;
9904;SDS011;4991;43.566;27.820;2023-03-03T02:53:59;16.57;;;11.73;;
9904;SDS011;4991;43.566;27.820;2023-03-03T02:56:24;18.80;;;12.00;;
9904;SDS011;4991;43.566;27.820;2023-03-03T02:58:50;17.20;;;11.73;;
9904;SDS011;4991;43.566;27.820;2023-03-03T03:01:15;16.73;;;12.17;;
9904;SDS011;4991;43.566;27.820;2023-03-03T03:03:42;18.23;;;11.50;;
9904;SDS011;4991;43.566;27.820;2023-03-03T03:06:08;17.87;;;10.60;;
9904;SDS011;4991;43.566;27.820;2023-03-03T03:08:33;15.33;;;10.83;;
9904;SDS011;4991;43.566;27.820;2023-03-03T03:10:59;19.23;;;11.63;;
9904;SDS011;4991;43.566;27.820;2023-03-03T03:13:25;17.23;;;11.10;;
9904;SDS011;4991;43.566;27.820;2023-03-03T03:15:51;14.97;;;10.93;;
9904;SDS011;4991;43.566;27.820;2023-03-03T03:18:17;16.60;;;10.40;;
9904;SDS011;4991;43.566;27.820;2023-03-03T03:20:43;17.10;;;10.90;;
9904;SDS011;4991;43.566;27.820;2023-03-03T03:23:10;17.63;;;11.47;;
9904;SDS011;4991;43.566;27.820;2023-03-03T03:25:36;18.60;;;11.33;;
9904;SDS011;4991;43.566;27.820;2023-03-03T03:28:10;17.83;;;10.63;;
9904;SDS011;4991;43.566;27.820;2023-03-03T03:30:36;14.77;;;11.13;;
9904;SDS011;4991;43.566;27.820;2023-03-03T03:33:02;21.47;;;13.03;;
9904;SDS011;4991;43.566;27.820;2023-03-03T03:35:28;19.90;;;13.23;;
9904;SDS011;4991;43.566;27.820;2023-03-03T03:37:54;17.83;;;12.70;;
9904;SDS011;4991;43.566;27.820;2023-03-03T03:40:20;18.53;;;11.87;;
9904;SDS011;4991;43.566;27.820;2023-03-03T03:42:46;16.53;;;11.50;;
9904;SDS011;4991;43.566;27.820;2023-03-03T03:45:11;19.27;;;12.37;;
9904;SDS011;4991;43.566;27.820;2023-03-03T03:47:40;17.43;;;11.87;;
9904;SDS011;4991;43.566;27.820;2023-03-03T03:50:08;18.30;;;12.70;;
9904;SDS011;4991;43.566;27.820;2023-03-03T03:52:33;18.53;;;12.00;;
9904;SDS011;4991;43.566;27.820;2023-03-03T03:54:59;20.20;;;11.97;;
9904;SDS011;4991;43.566;27.820;2023-03-03T03:57:25;18.50;;;11.40;;
9904;SDS011;4991;43.566;27.820;2023-03-03T03:59:51;19.53;;;12.30;;
9904;SDS011;4991;43.566;27.820;2023-03-03T04:02:17;14.53;;;10.73;;
9904;SDS011;4991;43.566;27.820;2023-03-03T04:04:43;17.93;;;11.53;;
9904;SDS011;4991;43.566;27.820;2023-03-03T04:07:08;18.10;;;11.87;;
9904;SDS011;4991;43.566;27.820;2023-03-03T04:09:34;17.07;;;10.93;;
9904;SDS011;4991;43.566;27.820;2023-03-03T04:12:00;15.70;;;11.50;;
9904;SDS011;4991;43.566;27.820;2023-03-03T04:14:25;21.43;;;12.90;;
9904;SDS011;4991;43.566;27.820;2023-03-03T04:16:51;13.90;;;10.80;;
9904;SDS011;4991;43.566;27.820;2023-03-03T04:19:17;15.80;;;10.30;;
9904;SDS011;4991;43.566;27.820;2023-03-03T04:21:42;16.80;;;11.37;;
9904;SDS011;4991;43.566;27.820;2023-03-03T04:24:08;16.83;;;12.83;;
9904;SDS011;4991;43.566;27.820;2023-03-03T04:26:34;20.83;;;13.83;;
9904;SDS011;4991;43.566;27.820;2023-03-03T04:28:59;17.33;;;12.07;;
9904;SDS011;4991;43.566;27.820;2023-03-03T04:31:25;15.93;;;11.27;;
9904;SDS011;4991;43.566;27.820;2023-03-03T04:33:51;13.93;;;10.63;;
9904;SDS011;4991;43.566;27.820;2023-03-03T04:36:18;18.93;;;10.57;;
9904;SDS011;4991;43.566;27.820;2023-03-03T04:38:44;17.93;;;11.90;;
9904;SDS011;4991;43.566;27.820;2023-03-03T04:41:10;19.60;;;11.87;;
9904;SDS011;4991;43.566;27.820;2023-03-03T04:43:35;16.67;;;11.67;;
9904;SDS011;4991;43.566;27.820;2023-03-03T04:46:01;18.43;;;12.03;;
9904;SDS011;4991;43.566;27.820;2023-03-03T04:48:27;16.83;;;11.33;;
9904;SDS011;4991;43.566;27.820;2023-03-03T04:50:53;17.60;;;11.63;;
9904;SDS011;4991;43.566;27.820;2023-03-03T04:53:19;19.40;;;12.87;;
9904;SDS011;4991;43.566;27.820;2023-03-03T04:55:44;18.30;;;13.27;;
9904;SDS011;4991;43.566;27.820;2023-03-03T04:58:12;18.53;;;12.40;;
9904;SDS011;4991;43.566;27.820;2023-03-03T05:00:38;14.27;;;11.37;;
9904;SDS011;4991;43.566;27.820;2023-03-03T05:03:03;17.17;;;11.73;;
9904;SDS011;4991;43.566;27.820;2023-03-03T05:05:29;18.33;;;12.13;;
9904;SDS011;4991;43.566;27.820;2023-03-03T05:07:55;23.87;;;13.40;;
9904;SDS011;4991;43.566;27.820;2023-03-03T05:10:20;21.43;;;11.93;;
9904;SDS011;4991;43.566;27.820;2023-03-03T05:12:46;18.70;;;11.70;;
9904;SDS011;4991;43.566;27.820;2023-03-03T05:15:12;16.67;;;11.63;;
9904;SDS011;4991;43.566;27.820;2023-03-03T05:17:38;18.10;;;11.60;;
9904;SDS011;4991;43.566;27.820;2023-03-03T05:20:04;15.70;;;12.07;;
9904;SDS011;4991;43.566;27.820;2023-03-03T05:22:32;16.27;;;12.07;;
9904;SDS011;4991;43.566;27.820;2023-03-03T05:24:58;19.80;;;12.17;;
9904;SDS011;4991;43.566;27.820;2023-03-03T05:27:24;19.93;;;13.27;;
9904;SDS011;4991;43.566;27.820;2023-03-03T05:29:50;23.43;;;14.53;;
9904;SDS011;4991;43.566;27.820;2023-03-03T05:32:15;23.33;;;16.77;;
9904;SDS011;4991;43.566;27.820;2023-03-03T05:34:41;23.90;;;14.47;;
9904;SDS011;4991;43.566;27.820;2023-03-03T05:37:07;16.13;;;12.13;;
9904;SDS011;4991;43.566;27.820;2023-03-03T05:39:33;19.53;;;13.47;;
9904;SDS011;4991;43.566;27.820;2023-03-03T05:41:59;16.53;;;12.27;;
9904;SDS011;4991;43.566;27.820;2023-03-03T05:44:25;23.67;;;14.10;;
9904;SDS011;4991;43.566;27.820;2023-03-03T05:46:51;20.60;;;12.30;;
9904;SDS011;4991;43.566;27.820;2023-03-03T05:49:17;20.37;;;13.27;;
9904;SDS011;4991;43.566;27.820;2023-03-03T05:51:43;23.90;;;12.33;;
9904;SDS011;4991;43.566;27.820;2023-03-03T05:54:08;23.17;;;14.53;;
9904;SDS011;4991;43.566;27.820;2023-03-03T05:56:34;21.07;;;12.67;;
9904;SDS011;4991;43.566;27.820;2023-03-03T05:58:59;20.77;;;11.90;;
9904;SDS011;4991;43.566;27.820;2023-03-03T06:01:25;17.60;;;13.23;;
9904;SDS011;4991;43.566;27.820;2023-03-03T06:03:51;19.90;;;13.47;;
9904;SDS011;4991;43.566;27.820;2023-03-03T06:06:17;19.30;;;12.73;;
9904;SDS011;4991;43.566;27.820;2023-03-03T06:08:43;21.67;;;13.63;;
9904;SDS011;4991;43.566;27.820;2023-03-03T06:11:10;23.50;;;13.63;;
9904;SDS011;4991;43.566;27.820;2023-03-03T06:13:36;30.83;;;17.23;;
9904;SDS011;4991;43.566;27.820;2023-03-03T06:16:01;32.00;;;14.37;;
9904;SDS011;4991;43.566;27.820;2023-03-03T06:18:27;18.90;;;12.40;;
9904;SDS011;4991;43.566;27.820;2023-03-03T06:20:53;22.47;;;11.13;;
9904;SDS011;4991;43.566;27.820;2023-03-03T06:23:19;30.83;;;12.40;;
9904;SDS011;4991;43.566;27.820;2023-03-03T06:25:45;16.37;;;12.33;;
9904;SDS011;4991;43.566;27.820;2023-03-03T06:28:12;22.67;;;13.77;;
9904;SDS011;4991;43.566;27.820;2023-03-03T06:30:38;18.50;;;11.60;;
9904;SDS011;4991;43.566;27.820;2023-03-03T06:33:04;25.80;;;17.30;;
9904;SDS011;4991;43.566;27.820;2023-03-03T06:35:29;23.43;;;17.20;;
9904;SDS011;4991;43.566;27.820;2023-03-03T06:37:55;22.90;;;13.37;;
9904;SDS011;4991;43.566;27.820;2023-03-03T06:40:21;16.90;;;10.80;;
9904;SDS011;4991;43.566;27.820;2023-03-03T06:42:47;16.87;;;13.03;;
9904;SDS011;4991;43.566;27.820;2023-03-03T06:45:13;15.13;;;10.60;;
9904;SDS011;4991;43.566;27.820;2023-03-03T06:47:39;16.17;;;11.00;;
9904;SDS011;4991;43.566;27.820;2023-03-03T06:50:05;21.30;;;12.40;;
9904;SDS011;4991;43.566;27.820;2023-03-03T06:52:32;21.40;;;13.27;;
9904;SDS011;4991;43.566;27.820;2023-03-03T06:54:58;19.10;;;11.43;;
9904;SDS011;4991;43.566;27.820;2023-03-03T06:57:30;17.60;;;10.60;;
9904;SDS011;4991;43.566;27.820;2023-03-03T07:00:11;27.77;;;11.83;;
9904;SDS011;4991;43.566;27.820;2023-03-03T07:02:58;20.87;;;9.80;;
9904;SDS011;4991;43.566;27.820;2023-03-03T07:05:29;17.47;;;10.27;;
9904;SDS011;4991;43.566;27.820;2023-03-03T07:07:57;19.70;;;13.33;;
9904;SDS011;4991;43.566;27.820;2023-03-03T07:10:25;20.83;;;12.33;;
9904;SDS011;4991;43.566;27.820;2023-03-03T07:12:53;20.03;;;11.90;;
9904;SDS011;4991;43.566;27.820;2023-03-03T07:15:23;16.27;;;12.30;;
9904;SDS011;4991;43.566;27.820;2023-03-03T07:17:54;25.67;;;11.83;;
9904;SDS011;4991;43.566;27.820;2023-03-03T07:20:27;18.93;;;11.20;;
9904;SDS011;4991;43.566;27.820;2023-03-03T07:23:01;17.03;;;10.80;;
9904;SDS011;4991;43.566;27.820;2023-03-03T07:25:52;18.83;;;9.43;;
9904;SDS011;4991;43.566;27.820;2023-03-03T07:30:51;23.97;;;11.67;;
9904;SDS011;4991;43.566;27.820;2023-03-03T07:33:22;25.97;;;11.53;;
9904;SDS011;4991;43.566;27.820;2023-03-03T07:35:55;22.17;;;12.37;;
9904;SDS011;4991;43.566;27.820;2023-03-03T07:38:41;16.20;;;10.33;;
9904;SDS011;4991;43.566;27.820;2023-03-03T07:41:17;16.13;;;9.57;;
9904;SDS011;4991;43.566;27.820;2023-03-03T07:46:25;20.77;;;11.27;;
9904;SDS011;4991;43.566;27.820;2023-03-03T07:48:53;19.27;;;9.97;;
9904;SDS011;4991;43.566;27.820;2023-03-03T07:51:28;18.27;;;9.80;;
9904;SDS011;4991;43.566;27.820;2023-03-03T07:56:41;27.57;;;13.50;;
9904;SDS011;4991;43.566;27.820;2023-03-03T07:59:20;22.53;;;11.53;;
9904;SDS011;4991;43.566;27.820;2023-03-03T08:01:52;20.23;;;10.73;;
9904;SDS011;4991;43.566;27.820;2023-03-03T08:04:41;14.77;;;10.07;;
9904;SDS011;4991;43.566;27.820;2023-03-03T08:07:18;15.73;;;10.43;;
9904;SDS011;4991;43.566;27.820;2023-03-03T08:14:38;16.20;;;12.17;;
9904;SDS011;4991;43.566;27.820;2023-03-03T08:17:20;19.20;;;10.90;;
9904;SDS011;4991;43.566;27.820;2023-03-03T08:19:50;17.33;;;10.10;;
9904;SDS011;4991;43.566;27.820;2023-03-03T08:22:19;25.87;;;16.20;;
9904;SDS011;4991;43.566;27.820;2023-03-03T08:25:00;47.77;;;19.33;;
9904;SDS011;4991;43.566;27.820;2023-03-03T08:27:26;31.33;;;15.97;;
9904;SDS011;4991;43.566;27.820;2023-03-03T08:29:51;22.37;;;12.10;;
9904;SDS011;4991;43.566;27.820;2023-03-03T08:32:17;22.77;;;12.47;;
9904;SDS011;4991;43.566;27.820;2023-03-03T08:34:43;20.27;;;13.27;;
9904;SDS011;4991;43.566;27.820;2023-03-03T08:37:09;17.10;;;10.17;;
9904;SDS011;4991;43.566;27.820;2023-03-03T08:39:34;18.27;;;9.87;;
9904;SDS011;4991;43.566;27.820;2023-03-03T08:42:00;15.93;;;10.13;;
9904;SDS011;4991;43.566;27.820;2023-03-03T08:44:26;12.00;;;9.43;;
9904;SDS011;4991;43.566;27.820;2023-03-03T08:46:51;14.70;;;10.20;;
9904;SDS011;4991;43.566;27.820;2023-03-03T08:49:17;14.73;;;9.43;;
9904;SDS011;4991;43.566;27.820;2023-03-03T08:51:43;15.27;;;10.63;;
9904;SDS011;4991;43.566;27.820;2023-03-03T08:54:08;17.33;;;9.90;;
9904;SDS011;4991;43.566;27.820;2023-03-03T08:56:34;15.70;;;10.00;;
9904;SDS011;4991;43.566;27.820;2023-03-03T08:59:00;15.67;;;8.33;;
9904;SDS011;4991;43.566;27.820;2023-03-03T09:01:25;17.90;;;9.90;;
9904;SDS011;4991;43.566;27.820;2023-03-03T09:03:51;16.17;;;10.20;;
9904;SDS011;4991;43.566;27.820;2023-03-03T09:06:17;13.13;;;8.73;;
9904;SDS011;4991;43.566;27.820;2023-03-03T09:08:42;14.93;;;8.67;;
9904;SDS011;4991;43.566;27.820;2023-03-03T09:11:09;15.83;;;9.87;;
9904;SDS011;4991;43.566;27.820;2023-03-03T09:13:37;20.83;;;11.20;;
9904;SDS011;4991;43.566;27.820;2023-03-03T09:16:09;18.03;;;10.37;;
9904;SDS011;4991;43.566;27.820;2023-03-03T09:18:38;15.10;;;9.07;;
9904;SDS011;4991;43.566;27.820;2023-03-03T09:23:48;11.80;;;9.47;;
9904;SDS011;4991;43.566;27.820;2023-03-03T09:28:53;18.20;;;9.37;;
9904;SDS011;4991;43.566;27.820;2023-03-03T09:31:29;13.97;;;9.40;;
9904;SDS011;4991;43.566;27.820;2023-03-03T09:34:16;23.70;;;10.53;;
9904;SDS011;4991;43.566;27.820;2023-03-03T09:36:48;19.43;;;9.80;;
9904;SDS011;4991;43.566;27.820;2023-03-03T09:39:22;12.13;;;8.20;;
9904;SDS011;4991;43.566;27.820;2023-03-03T09:56:48;14.37;;;8.63;;
9904;SDS011;4991;43.566;27.820;2023-03-03T10:05:03;11.20;;;7.93;;
9904;SDS011;4991;43.566;27.820;2023-03-03T10:07:44;9.97;;;7.27;;
9904;SDS011;4991;43.566;27.820;2023-03-03T10:10:16;11.83;;;8.30;;
9904;SDS011;4991;43.566;27.820;2023-03-03T10:13:03;26.40;;;9.53;;
9904;SDS011;4991;43.566;27.820;2023-03-03T10:18:29;13.87;;;7.97;;
9904;SDS011;4991;43.566;27.820;2023-03-03T10:23:44;11.57;;;7.27;;
9904;SDS011;4991;43.566;27.820;2023-03-03T10:29:35;14.20;;;8.77;;
9904;SDS011;4991;43.566;27.820;2023-03-03T10:37:52;8.80;;;7.40;;
9904;SDS011;4991;43.566;27.820;2023-03-03T10:40:40;14.27;;;9.87;;
9904;SDS011;4991;43.566;27.820;2023-03-03T10:48:31;9.47;;;6.57;;
9904;SDS011;4991;43.566;27.820;2023-03-03T10:51:29;16.87;;;8.00;;
9904;SDS011;4991;43.566;27.820;2023-03-03T11:03:12;12.00;;;6.97;;
9904;SDS011;4991;43.566;27.820;2023-03-03T11:06:01;13.17;;;7.23;;
9904;SDS011;4991;43.566;27.820;2023-03-03T11:14:38;11.40;;;6.53;;
9904;SDS011;4991;43.566;27.820;2023-03-03T11:22:53;19.13;;;12.73;;
9904;SDS011;4991;43.566;27.820;2023-03-03T11:31:10;11.47;;;6.27;;
9904;SDS011;4991;43.566;27.820;2023-03-03T11:33:42;7.40;;;6.43;;
9904;SDS011;4991;43.566;27.820;2023-03-03T11:36:24;9.53;;;6.17;;
9904;SDS011;4991;43.566;27.820;2023-03-03T11:38:59;10.23;;;7.73;;
9904;SDS011;4991;43.566;27.820;2023-03-03T11:54:53;11.63;;;8.07;;
9904;SDS011;4991;43.566;27.820;2023-03-03T11:57:28;10.83;;;6.87;;
9904;SDS011;4991;43.566;27.820;2023-03-03T12:03:02;15.47;;;7.67;;
9904;SDS011;4991;43.566;27.820;2023-03-03T12:05:38;7.93;;;6.97;;
9904;SDS011;4991;43.566;27.820;2023-03-03T12:11:31;12.17;;;7.40;;
9904;SDS011;4991;43.566;27.820;2023-03-03T12:28:21;8.77;;;6.93;;
9904;SDS011;4991;43.566;27.820;2023-03-03T12:30:39;15.20;;;12.50;;
9904;SDS011;4991;43.566;27.820;2023-03-03T12:41:31;10.03;;;7.57;;
9904;SDS011;4991;43.566;27.820;2023-03-03T12:46:56;8.40;;;7.27;;
9904;SDS011;4991;43.566;27.820;2023-03-03T12:49:33;12.10;;;7.87;;
9904;SDS011;4991;43.566;27.820;2023-03-03T12:54:45;8.67;;;6.90;;
9904;SDS011;4991;43.566;27.820;2023-03-03T12:59:57;11.00;;;7.47;;
9904;SDS011;4991;43.566;27.820;2023-03-03T13:05:37;8.50;;;6.80;;
9904;SDS011;4991;43.566;27.820;2023-03-03T13:13:52;9.80;;;7.03;;
9904;SDS011;4991;43.566;27.820;2023-03-03T13:16:42;6.97;;;5.70;;
9904;SDS011;4991;43.566;27.820;2023-03-03T13:19:15;8.30;;;6.50;;
9904;SDS011;4991;43.566;27.820;2023-03-03T13:27:39;8.73;;;6.30;;
9904;SDS011;4991;43.566;27.820;2023-03-03T13:30:29;8.17;;;5.93;;
9904;SDS011;4991;43.566;27.820;2023-03-03T13:33:07;8.53;;;6.33;;
9904;SDS011;4991;43.566;27.820;2023-03-03T13:35:44;9.47;;;7.97;;
9904;SDS011;4991;43.566;27.820;2023-03-03T13:38:13;6.73;;;5.67;;
9904;SDS011;4991;43.566;27.820;2023-03-03T13:56:45;10.13;;;5.83;;
9904;SDS011;4991;43.566;27.820;2023-03-03T14:02:20;9.00;;;6.80;;
9904;SDS011;4991;43.566;27.820;2023-03-03T14:10:07;12.43;;;7.00;;
9904;SDS011;4991;43.566;27.820;2023-03-03T14:15:27;8.47;;;6.47;;
9904;SDS011;4991;43.566;27.820;2023-03-03T14:20:48;10.93;;;8.27;;
9904;SDS011;4991;43.566;27.820;2023-03-03T14:25:55;9.67;;;6.07;;
9904;SDS011;4991;43.566;27.820;2023-03-03T14:28:23;17.97;;;8.90;;
9904;SDS011;4991;43.566;27.820;2023-03-03T14:30:55;12.40;;;7.77;;
9904;SDS011;4991;43.566;27.820;2023-03-03T14:33:26;10.00;;;6.73;;
9904;SDS011;4991;43.566;27.820;2023-03-03T14:43:37;15.73;;;9.27;;
9904;SDS011;4991;43.566;27.820;2023-03-03T14:46:38;11.60;;;9.07;;
9904;SDS011;4991;43.566;27.820;2023-03-03T14:49:15;11.50;;;8.03;;
9904;SDS011;4991;43.566;27.820;2023-03-03T14:52:09;7.67;;;5.97;;
9904;SDS011;4991;43.566;27.820;2023-03-03T14:54:50;10.73;;;6.40;;
9904;SDS011;4991;43.566;27.820;2023-03-03T14:57:22;12.70;;;6.73;;
9904;SDS011;4991;43.566;27.820;2023-03-03T15:07:48;11.97;;;7.83;;
9904;SDS011;4991;43.566;27.820;2023-03-03T15:10:30;15.17;;;8.50;;
9904;SDS011;4991;43.566;27.820;2023-03-03T15:13:44;9.97;;;7.30;;
9904;SDS011;4991;43.566;27.820;2023-03-03T15:15:59;11.87;;;8.60;;
9904;SDS011;4991;43.566;27.820;2023-03-03T15:18:25;14.13;;;9.03;;
9904;SDS011;4991;43.566;27.820;2023-03-03T15:23:32;12.07;;;9.80;;
9904;SDS011;4991;43.566;27.820;2023-03-03T15:29:16;12.70;;;9.47;;
9904;SDS011;4991;43.566;27.820;2023-03-03T15:42:47;16.37;;;11.63;;
9904;SDS011;4991;43.566;27.820;2023-03-03T15:50:59;19.93;;;13.83;;
9904;SDS011;4991;43.566;27.820;2023-03-03T16:01:34;16.23;;;11.73;;
9904;SDS011;4991;43.566;27.820;2023-03-03T16:04:25;16.00;;;11.93;;
9904;SDS011;4991;43.566;27.820;2023-03-03T16:09:31;18.53;;;11.93;;
9904;SDS011;4991;43.566;27.820;2023-03-03T16:12:32;12.53;;;9.13;;
9904;SDS011;4991;43.566;27.820;2023-03-03T16:15:14;19.60;;;11.57;;
9904;SDS011;4991;43.566;27.820;2023-03-03T16:20:57;18.97;;;9.40;;
9904;SDS011;4991;43.566;27.820;2023-03-03T16:26:18;37.93;;;18.37;;
9904;SDS011;4991;43.566;27.820;2023-03-03T16:32:08;23.97;;;13.97;;
9904;SDS011;4991;43.566;27.820;2023-03-03T16:37:30;17.30;;;12.57;;
9904;SDS011;4991;43.566;27.820;2023-03-03T16:40:02;17.80;;;12.03;;
9904;SDS011;4991;43.566;27.820;2023-03-03T16:42:33;18.87;;;12.17;;
9904;SDS011;4991;43.566;27.820;2023-03-03T16:45:33;18.23;;;13.17;;
9904;SDS011;4991;43.566;27.820;2023-03-03T16:56:43;17.13;;;10.57;;
9904;SDS011;4991;43.566;27.820;2023-03-03T17:19:27;22.73;;;13.77;;
9904;SDS011;4991;43.566;27.820;2023-03-03T17:22:11;18.97;;;11.53;;
9904;SDS011;4991;43.566;27.820;2023-03-03T17:27:52;17.57;;;10.93;;
9904;SDS011;4991;43.566;27.820;2023-03-03T17:33:21;13.43;;;10.27;;
9904;SDS011;4991;43.566;27.820;2023-03-03T17:36:18;11.97;;;9.30;;
9904;SDS011;4991;43.566;27.820;2023-03-03T17:47:19;16.63;;;11.87;;
9904;SDS011;4991;43.566;27.820;2023-03-03T17:53:05;21.80;;;13.77;;
9904;SDS011;4991;43.566;27.820;2023-03-03T17:55:42;18.07;;;12.57;;
9904;SDS011;4991;43.566;27.820;2023-03-03T18:09:36;19.53;;;13.03;;
9904;SDS011;4991;43.566;27.820;2023-03-03T18:26:50;22.23;;;15.93;;
9904;SDS011;4991;43.566;27.820;2023-03-03T18:29:27;21.83;;;16.00;;
9904;SDS011;4991;43.566;27.820;2023-03-03T18:50:45;0.10;;;0.10;;
9904;SDS011;4991;43.566;27.820;2023-03-03T18:53:20;0.10;;;0.10;;
9904;SDS011;4991;43.566;27.820;2023-03-03T18:55:54;0.10;;;0.10;;
9904;SDS011;4991;43.566;27.820;2023-03-03T18:58:42;1.23;;;1.13;;
9904;SDS011;4991;43.566;27.820;2023-03-03T19:04:01;0.10;;;0.10;;
9904;SDS011;4991;43.566;27.820;2023-03-03T19:06:31;0.03;;;0.03;;
9904;SDS011;4991;43.566;27.820;2023-03-03T19:12:16;0.10;;;0.10;;
9904;SDS011;4991;43.566;27.820;2023-03-03T19:14:44;0.10;;;0.10;;
9904;SDS011;4991;43.566;27.820;2023-03-03T19:20:06;0.10;;;0.10;;
9904;SDS011;4991;43.566;27.820;2023-03-03T19:22:45;0.03;;;0.03;;
9904;SDS011;4991;43.566;27.820;2023-03-03T19:25:26;4.10;;;3.90;;
9904;SDS011;4991;43.566;27.820;2023-03-03T19:31:05;0.10;;;0.10;;
9904;SDS011;4991;43.566;27.820;2023-03-03T19:48:05;0.10;;;0.10;;
9904;SDS011;4991;43.566;27.820;2023-03-03T19:50:32;0.00;;;0.00;;
9904;SDS011;4991;43.566;27.820;2023-03-03T19:53:22;0.10;;;0.10;;
9904;SDS011;4991;43.566;27.820;2023-03-03T19:56:14;0.10;;;0.10;;
9904;SDS011;4991;43.566;27.820;2023-03-03T19:58:45;0.10;;;0.10;;
9904;SDS011;4991;43.566;27.820;2023-03-03T20:01:31;0.20;;;0.20;;
9904;SDS011;4991;43.566;27.820;2023-03-03T20:06:51;0.10;;;0.10;;
9904;SDS011;4991;43.566;27.820;2023-03-03T20:15:39;3.40;;;3.00;;
9904;SDS011;4991;43.566;27.820;2023-03-03T20:26:34;0.00;;;0.00;;
9904;SDS011;4991;43.566;27.820;2023-03-03T20:32:08;0.00;;;0.00;;
9904;SDS011;4991;43.566;27.820;2023-03-03T21:02:27;0.10;;;0.10;;
9904;SDS011;4991;43.566;27.820;2023-03-03T21:05:12;0.10;;;0.10;;
9904;SDS011;4991;43.566;27.820;2023-03-03T21:07:53;0.10;;;0.10;;
9904;SDS011;4991;43.566;27.820;2023-03-03T21:10:22;0.10;;;0.10;;
9904;SDS011;4991;43.566;27.820;2023-03-03T21:12:52;0.10;;;0.10;;
9904;SDS011;4991;43.566;27.820;2023-03-03T21:15:32;0.10;;;0.10;;
9904;SDS011;4991;43.566;27.820;2023-03-03T21:17:59;0.10;;;0.10;;
9904;SDS011;4991;43.566;27.820;2023-03-03T21:20:45;0.00;;;0.00;;
9904;SDS011;4991;43.566;27.820;2023-03-03T21:23:10;0.10;;;0.10;;
9904;SDS011;4991;43.566;27.820;2023-03-03T21:28:38;0.00;;;0.00;;
9904;SDS011;4991;43.566;27.820;2023-03-03T21:31:05;0.10;;;0.10;;
9904;SDS011;4991;43.566;27.820;2023-03-03T21:33:52;0.10;;;0.10;;
9904;SDS011;4991;43.566;27.820;2023-03-03T21:36:20;0.03;;;0.03;;
9904;SDS011;4991;43.566;27.820;2023-03-03T21:38:58;0.10;;;0.10;;
9904;SDS011;4991;43.566;27.820;2023-03-03T21:41:26;0.10;;;0.10;;
9904;SDS011;4991;43.566;27.820;2023-03-03T21:43:52;0.10;;;0.10;;
9904;SDS011;4991;43.566;27.820;2023-03-03T21:46:21;0.00;;;0.00;;
9904;SDS011;4991;43.566;27.820;2023-03-03T21:48:48;0.10;;;0.10;;
9904;SDS011;4991;43.566;27.820;2023-03-03T21:51:17;0.10;;;0.10;;
9904;SDS011;4991;43.566;27.820;2023-03-03T21:53:44;0.10;;;0.10;;
9904;SDS011;4991;43.566;27.820;2023-03-03T21:56:10;0.07;;;0.07;;
9904;SDS011;4991;43.566;27.820;2023-03-03T21:58:40;0.10;;;0.10;;
9904;SDS011;4991;43.566;27.820;2023-03-03T22:01:06;0.10;;;0.10;;
9904;SDS011;4991;43.566;27.820;2023-03-03T22:03:32;0.37;;;0.37;;
9904;SDS011;4991;43.566;27.820;2023-03-03T22:05:59;0.20;;;0.20;;
9904;SDS011;4991;43.566;27.820;2023-03-03T22:08:26;0.10;;;0.10;;
9904;SDS011;4991;43.566;27.820;2023-03-03T22:10:52;0.07;;;0.07;;
9904;SDS011;4991;43.566;27.820;2023-03-03T22:13:21;0.10;;;0.10;;